createdAt,value
2018-03-14T00:02:27.488Z,91.99
2018-03-14T00:04:55.825Z,91.23
2018-03-14T00:07:24.168Z,91.30
2018-03-14T00:09:52.546Z,91.21
2018-03-14T00:12:20.953Z,91.75
2018-03-14T00:14:49.300Z,92.46
2018-03-14T00:17:17.620Z,91.74
2018-03-14T00:19:45.958Z,91.59
2018-03-14T00:22:35.026Z,91.69
2018-03-14T00:25:03.337Z,92.23
2018-03-14T00:27:31.759Z,91.58
2018-03-14T00:30:00.094Z,91.52
2018-03-14T00:32:28.452Z,91.82
2018-03-14T00:34:56.851Z,91.66
2018-03-14T00:37:25.248Z,91.81
2018-03-14T00:39:53.587Z,91.86
2018-03-14T00:42:22.013Z,91.93
2018-03-14T00:44:50.342Z,91.64
2018-03-14T00:47:18.675Z,91.06
2018-03-14T00:49:47.012Z,91.11
2018-03-14T00:52:15.382Z,91.74
2018-03-14T00:54:43.715Z,91.93
2018-03-14T00:57:12.037Z,92.38
2018-03-14T00:59:40.452Z,92.21
2018-03-14T01:02:08.768Z,91.83
2018-03-14T01:04:38.063Z,92.01
2018-03-14T01:07:06.393Z,91.80
2018-03-14T01:09:34.749Z,92.10
2018-03-14T01:12:03.077Z,91.46
2018-03-14T01:14:31.433Z,92.15
2018-03-14T01:16:59.787Z,92.41
2018-03-14T01:19:28.106Z,92.36
2018-03-14T01:21:56.747Z,92.40
2018-03-14T01:24:25.073Z,92.39
2018-03-14T01:26:53.507Z,92.39
2018-03-14T01:29:21.856Z,92.62
2018-03-14T01:31:50.172Z,92.81
2018-03-14T01:34:18.580Z,92.38
2018-03-14T01:36:46.897Z,92.16
2018-03-14T01:39:15.338Z,92.18
2018-03-14T01:41:43.728Z,92.21
2018-03-14T01:44:12.122Z,91.81
2018-03-14T01:46:40.620Z,92.05
2018-03-14T01:49:08.951Z,91.87
2018-03-14T01:51:37.979Z,91.81
2018-03-14T01:54:06.311Z,91.75
2018-03-14T01:56:34.655Z,91.43
2018-03-14T01:59:02.977Z,91.50
2018-03-14T02:01:31.337Z,91.31
2018-03-14T02:03:59.677Z,91.86
2018-03-14T02:06:28.072Z,91.27
2018-03-14T02:08:56.456Z,90.93
2018-03-14T02:11:24.805Z,91.28
2018-03-14T02:13:53.148Z,91.60
2018-03-14T02:16:21.486Z,91.71
2018-03-14T02:18:49.810Z,92.04
2018-03-14T02:21:18.213Z,91.47
2018-03-14T02:23:46.603Z,91.07
2018-03-14T02:26:15.000Z,91.28
2018-03-14T02:28:43.460Z,91.48
2018-03-14T02:31:11.793Z,91.51
2018-03-14T02:33:40.115Z,91.64
2018-03-14T02:36:08.464Z,91.37
2018-03-14T02:38:36.860Z,91.20
2018-03-14T02:41:05.264Z,91.34
2018-03-14T02:43:33.587Z,91.44
2018-03-14T02:46:01.927Z,91.70
2018-03-14T02:48:30.261Z,91.87
2018-03-14T02:50:58.617Z,91.34
2018-03-14T02:53:26.943Z,91.14
2018-03-14T02:55:55.266Z,91.22
2018-03-14T02:58:23.600Z,91.66
2018-03-14T03:00:51.913Z,91.74
2018-03-14T03:03:20.228Z,91.30
2018-03-14T03:05:48.556Z,91.59
2018-03-14T03:08:16.881Z,91.22
2018-03-14T03:10:45.254Z,91.40
2018-03-14T03:13:13.569Z,90.99
2018-03-14T03:15:41.945Z,90.93
2018-03-14T03:18:10.273Z,90.62
2018-03-14T03:20:38.629Z,90.86
2018-03-14T03:23:06.944Z,90.68
2018-03-14T03:25:35.261Z,90.99
2018-03-14T03:28:03.612Z,90.37
2018-03-14T03:30:31.987Z,90.48
2018-03-14T03:33:00.298Z,90.91
2018-03-14T03:35:28.716Z,90.55
2018-03-14T03:37:57.030Z,90.19
2018-03-14T03:40:25.452Z,90.36
2018-03-14T03:42:53.891Z,90.27
2018-03-14T03:45:22.276Z,89.99
2018-03-14T03:47:50.580Z,89.99
2018-03-14T03:50:19.042Z,89.88
2018-03-14T03:52:47.364Z,90.04
2018-03-14T03:55:15.690Z,90.09
2018-03-14T03:57:44.104Z,90.24
2018-03-14T04:00:12.431Z,90.04
2018-03-14T04:02:40.800Z,90.05
2018-03-14T04:05:09.183Z,90.06
2018-03-14T04:07:37.507Z,89.77
2018-03-14T04:10:06.297Z,89.81
2018-03-14T04:12:34.636Z,89.74
2018-03-14T04:15:03.244Z,89.45
2018-03-14T04:17:31.560Z,89.59
2018-03-14T04:19:59.890Z,89.64
2018-03-14T04:22:28.226Z,89.49
2018-03-14T04:24:56.567Z,88.97
2018-03-14T04:27:25.051Z,89.04
2018-03-14T04:29:53.382Z,89.16
2018-03-14T04:32:21.697Z,88.92
2018-03-14T04:34:50.066Z,89.16
2018-03-14T04:37:18.378Z,89.10
2018-03-14T04:39:46.749Z,89.44
2018-03-14T04:42:15.202Z,89.44
2018-03-14T04:44:43.554Z,88.60
2018-03-14T04:47:11.886Z,88.90
2018-03-14T04:49:40.232Z,89.14
2018-03-14T04:52:08.831Z,89.12
2018-03-14T04:54:37.186Z,88.91
2018-03-14T04:57:05.620Z,88.74
2018-03-14T04:59:33.943Z,88.50
2018-03-14T05:02:02.338Z,88.10
2018-03-14T05:04:30.695Z,88.54
2018-03-14T05:06:59.037Z,89.12
2018-03-14T05:09:27.353Z,89.14
2018-03-14T05:11:55.683Z,88.84
2018-03-14T05:14:24.002Z,89.45
2018-03-14T05:16:52.332Z,89.42
2018-03-14T05:19:20.818Z,89.37
2018-03-14T05:21:50.105Z,88.89
2018-03-14T05:24:18.425Z,88.96
2018-03-14T05:26:46.758Z,88.87
2018-03-14T05:29:15.072Z,89.38
2018-03-14T05:31:43.414Z,89.57
2018-03-14T05:34:11.803Z,91.04
2018-03-14T05:36:40.157Z,90.16
2018-03-14T05:39:08.469Z,88.44
2018-03-14T05:41:36.809Z,85.07
2018-03-14T05:44:05.741Z,85.40
2018-03-14T05:46:34.082Z,84.45
2018-03-14T05:49:02.490Z,84.13
2018-03-14T05:51:31.084Z,83.17
2018-03-14T05:53:59.445Z,84.04
2018-03-14T05:56:27.786Z,84.00
2018-03-14T05:58:56.239Z,82.92
2018-03-14T06:01:24.566Z,83.06
2018-03-14T06:03:52.921Z,83.60
2018-03-14T06:06:21.237Z,84.67
2018-03-14T06:08:49.560Z,86.03
2018-03-14T06:11:17.889Z,86.79
2018-03-14T06:13:46.214Z,87.71
2018-03-14T06:16:14.544Z,87.60
2018-03-14T06:18:42.872Z,87.90
2018-03-14T06:21:11.185Z,87.83
2018-03-14T06:23:39.577Z,87.44
2018-03-14T06:26:07.964Z,87.23
2018-03-14T06:28:36.324Z,86.98
2018-03-14T06:31:04.661Z,87.28
2018-03-14T06:33:32.988Z,87.04
2018-03-14T06:36:01.315Z,86.17
2018-03-14T06:38:29.706Z,86.08
2018-03-14T06:40:58.026Z,86.24
2018-03-14T06:43:26.412Z,86.05
2018-03-14T06:45:54.781Z,86.49
2018-03-14T06:48:23.188Z,85.56
2018-03-14T06:50:51.667Z,85.09
2018-03-14T06:53:19.984Z,84.85
2018-03-14T06:55:48.356Z,85.70
2018-03-14T06:58:29.318Z,85.68
2018-03-14T07:01:09.471Z,85.24
2018-03-14T07:06:42.623Z,85.29
2018-03-14T07:09:10.965Z,85.97
2018-03-14T07:11:39.370Z,86.66
2018-03-14T07:14:07.690Z,86.48
2018-03-14T07:16:36.249Z,86.96
2018-03-14T07:19:04.630Z,86.97
2018-03-14T07:21:32.966Z,87.25
2018-03-14T07:24:01.310Z,86.90
2018-03-14T07:26:29.629Z,86.58
2018-03-14T07:28:57.946Z,86.11
2018-03-14T07:31:26.285Z,86.16
2018-03-14T07:33:54.607Z,85.54
2018-03-14T07:36:22.997Z,85.94
2018-03-14T07:38:51.361Z,84.98
2018-03-14T07:41:19.683Z,85.55
2018-03-14T07:43:48.074Z,85.91
2018-03-14T07:46:16.466Z,86.56
2018-03-14T07:48:44.795Z,85.84
2018-03-14T07:51:13.113Z,85.66
2018-03-14T07:53:41.549Z,85.19
2018-03-14T07:56:09.883Z,85.15
2018-03-14T07:58:38.210Z,84.88
2018-03-14T08:01:06.557Z,84.30
2018-03-14T08:03:34.917Z,85.44
2018-03-14T08:06:03.244Z,84.42
2018-03-14T08:08:31.588Z,83.73
2018-03-14T08:10:59.896Z,82.88
2018-03-14T08:13:28.383Z,82.42
2018-03-14T08:15:56.599Z,81.68
2018-03-14T08:18:24.958Z,82.68
2018-03-14T08:20:53.265Z,82.81
2018-03-14T08:23:21.603Z,82.81
2018-03-14T08:25:49.938Z,81.44
2018-03-14T08:28:18.260Z,79.89
2018-03-14T08:30:46.580Z,80.83
2018-03-14T08:33:14.919Z,81.21
2018-03-14T08:35:43.229Z,79.71
2018-03-14T08:38:11.699Z,79.76
2018-03-14T08:40:40.001Z,79.72
2018-03-14T08:43:08.385Z,80.49
2018-03-14T08:45:36.713Z,80.18
2018-03-14T08:48:05.046Z,79.70
2018-03-14T08:50:33.365Z,80.04
2018-03-14T08:53:01.676Z,78.87
2018-03-14T08:55:30.000Z,78.54
2018-03-14T08:57:58.298Z,79.75
2018-03-14T09:00:26.629Z,79.78
2018-03-14T09:02:54.941Z,78.58
2018-03-14T09:05:23.250Z,78.28
2018-03-14T09:07:51.591Z,77.54
2018-03-14T09:10:19.981Z,76.29
2018-03-14T09:12:48.301Z,77.80
2018-03-14T09:15:16.673Z,75.96
2018-03-14T09:17:44.989Z,76.52
2018-03-14T09:20:13.310Z,77.83
2018-03-14T09:22:41.622Z,76.58
2018-03-14T09:25:09.940Z,76.71
2018-03-14T09:27:38.246Z,77.53
2018-03-14T09:30:06.568Z,76.93
2018-03-14T09:32:34.882Z,77.23
2018-03-14T09:35:03.200Z,77.97
2018-03-14T09:37:31.497Z,78.66
2018-03-14T09:39:59.821Z,78.66
2018-03-14T09:42:28.135Z,78.40
2018-03-14T09:44:56.896Z,78.31
2018-03-14T09:47:25.227Z,77.63
2018-03-14T09:49:53.524Z,76.67
2018-03-14T09:52:21.853Z,77.74
2018-03-14T09:54:50.226Z,77.17
2018-03-14T09:57:18.532Z,75.95
2018-03-14T09:59:46.848Z,76.60
2018-03-14T10:02:15.180Z,75.94
2018-03-14T10:04:43.607Z,75.51
2018-03-14T10:07:11.993Z,75.31
2018-03-14T10:09:40.298Z,75.25
2018-03-14T10:12:08.647Z,74.58
2018-03-14T10:14:37.003Z,73.53
2018-03-14T10:17:05.404Z,73.47
2018-03-14T10:19:33.721Z,73.74
2018-03-14T10:22:02.048Z,72.28
2018-03-14T10:24:30.361Z,71.88
2018-03-14T10:26:58.678Z,71.78
2018-03-14T10:29:27.076Z,69.27
2018-03-14T10:31:55.460Z,70.92
2018-03-14T10:34:23.773Z,71.36
2018-03-14T10:36:52.078Z,71.06
2018-03-14T10:39:20.379Z,71.30
2018-03-14T10:41:48.692Z,71.38
2018-03-14T10:44:16.989Z,71.65
2018-03-14T10:46:45.402Z,71.69
2018-03-14T10:49:13.733Z,71.81
2018-03-14T10:51:42.346Z,71.61
2018-03-14T10:54:10.659Z,73.18
2018-03-14T10:56:38.971Z,72.21
2018-03-14T10:59:07.322Z,72.61
2018-03-14T11:01:41.118Z,73.17
2018-03-14T11:04:09.438Z,73.62
2018-03-14T11:06:37.818Z,73.98
2018-03-14T11:09:06.282Z,72.52
2018-03-14T11:11:34.619Z,70.78
2018-03-14T11:14:02.936Z,71.78
2018-03-14T11:16:31.296Z,71.89
2018-03-14T11:18:59.673Z,70.90
2018-03-14T11:21:28.000Z,71.47
2018-03-14T11:23:56.319Z,70.84
2018-03-14T11:26:24.636Z,70.30
2018-03-14T11:28:53.066Z,70.57
2018-03-14T11:31:21.381Z,72.38
2018-03-14T11:33:49.689Z,72.09
2018-03-14T11:36:18.070Z,72.15
2018-03-14T11:38:47.269Z,71.41
2018-03-14T11:41:15.686Z,72.06
2018-03-14T11:43:43.996Z,72.38
2018-03-14T11:46:12.296Z,72.74
2018-03-14T11:48:40.724Z,71.54
2018-03-14T11:51:09.029Z,71.90
2018-03-14T11:53:37.455Z,70.84
2018-03-14T11:56:05.817Z,71.77
2018-03-14T11:58:34.168Z,71.76
2018-03-14T12:01:02.544Z,70.57
2018-03-14T12:03:30.853Z,71.25
2018-03-14T12:05:59.278Z,71.97
2018-03-14T12:08:27.601Z,70.81
2018-03-14T12:10:55.941Z,68.66
2018-03-14T12:13:24.229Z,69.68
2018-03-14T12:15:52.560Z,70.29
2018-03-14T12:18:20.856Z,68.91
2018-03-14T12:20:49.185Z,69.34
2018-03-14T12:23:17.498Z,69.67
2018-03-14T12:25:45.845Z,68.81
2018-03-14T12:28:14.200Z,68.88
2018-03-14T12:30:42.547Z,70.46
2018-03-14T12:33:10.904Z,68.79
2018-03-14T12:35:39.250Z,68.07
2018-03-14T12:38:07.736Z,69.67
2018-03-14T12:40:36.076Z,71.00
2018-03-14T12:43:04.374Z,70.90
2018-03-14T12:45:32.946Z,70.42
2018-03-14T12:48:01.336Z,70.72
2018-03-14T12:50:29.685Z,71.53
2018-03-14T12:52:57.984Z,70.79
2018-03-14T12:55:26.342Z,72.17
2018-03-14T12:57:54.651Z,72.24
2018-03-14T13:00:22.997Z,73.70
2018-03-14T13:02:51.406Z,74.14
2018-03-14T13:05:19.696Z,74.55
2018-03-14T13:07:48.018Z,73.06
2018-03-14T13:10:16.331Z,73.13
2018-03-14T13:12:44.667Z,72.18
2018-03-14T13:15:12.973Z,71.44
2018-03-14T13:17:41.348Z,72.49
2018-03-14T13:20:09.662Z,71.41
2018-03-14T13:22:38.020Z,71.37
2018-03-14T13:25:06.326Z,71.05
2018-03-14T13:27:34.704Z,71.48
2018-03-14T13:30:03.094Z,72.28
2018-03-14T13:32:31.485Z,72.44
2018-03-14T13:34:59.806Z,72.24
2018-03-14T13:37:28.122Z,72.43
2018-03-14T13:39:56.441Z,72.06
2018-03-14T13:42:24.864Z,71.52
2018-03-14T13:44:53.175Z,70.42
2018-03-14T13:47:21.561Z,70.11
2018-03-14T13:49:49.884Z,71.25
2018-03-14T13:52:18.199Z,70.22
2018-03-14T13:54:46.630Z,70.76
2018-03-14T13:57:15.017Z,70.67
2018-03-14T13:59:43.414Z,70.19
2018-03-14T14:02:11.831Z,71.46
2018-03-14T14:04:40.210Z,71.68
2018-03-14T14:07:08.601Z,71.74
2018-03-14T14:09:37.719Z,72.39
2018-03-14T14:12:06.025Z,73.40
2018-03-14T14:14:34.351Z,72.81
2018-03-14T14:17:02.680Z,73.25
2018-03-14T14:19:31.012Z,72.09
2018-03-14T14:21:59.310Z,70.66
2018-03-14T14:24:27.662Z,68.80
2018-03-14T14:26:55.973Z,68.73
2018-03-14T14:29:24.316Z,67.58
2018-03-14T14:31:52.617Z,66.69
2018-03-14T14:34:20.934Z,67.94
2018-03-14T14:36:49.249Z,68.53
2018-03-14T14:39:17.640Z,65.40
2018-03-14T14:41:46.042Z,66.11
2018-03-14T14:44:14.377Z,65.15
2018-03-14T14:46:42.694Z,65.71
2018-03-14T14:49:11.064Z,67.69
2018-03-14T14:51:39.393Z,67.80
2018-03-14T14:54:07.753Z,67.81
2018-03-14T14:56:36.096Z,68.51
2018-03-14T14:59:04.446Z,66.81
2018-03-14T15:01:32.811Z,66.86
2018-03-14T15:04:01.112Z,65.43
2018-03-14T15:06:29.440Z,65.05
2018-03-14T15:08:57.778Z,65.60
2018-03-14T15:11:26.126Z,66.14
2018-03-14T15:13:54.443Z,65.74
2018-03-14T15:16:22.860Z,66.95
2018-03-14T15:18:51.173Z,68.75
2018-03-14T15:21:19.636Z,67.93
2018-03-14T15:23:47.843Z,68.03
2018-03-14T15:26:16.199Z,66.46
2018-03-14T15:28:44.521Z,67.07
2018-03-14T15:31:12.838Z,68.87
2018-03-14T15:33:41.210Z,69.05
2018-03-14T15:36:09.525Z,67.54
2018-03-14T15:38:37.896Z,68.69
2018-03-14T15:41:07.319Z,68.25
2018-03-14T15:43:36.291Z,68.05
2018-03-14T15:46:04.641Z,68.71
2018-03-14T15:48:32.967Z,68.96
2018-03-14T15:51:01.294Z,69.02
2018-03-14T15:53:29.674Z,69.05
2018-03-14T15:55:58.057Z,68.09
2018-03-14T15:58:26.462Z,69.02
2018-03-14T16:00:55.154Z,69.93
2018-03-14T16:03:23.593Z,69.63
2018-03-14T16:05:51.898Z,70.21
2018-03-14T16:08:20.231Z,70.75
2018-03-14T16:10:48.618Z,70.28
2018-03-14T16:13:16.925Z,70.90
2018-03-14T16:15:45.298Z,70.38
2018-03-14T16:18:13.618Z,71.51
2018-03-14T16:20:41.931Z,71.49
2018-03-14T16:23:10.282Z,72.02
2018-03-14T16:25:38.600Z,71.54
2018-03-14T16:28:06.993Z,72.13
2018-03-14T16:30:35.346Z,71.85
2018-03-14T16:33:03.694Z,71.33
2018-03-14T16:35:32.012Z,72.37
2018-03-14T16:38:00.339Z,72.25
2018-03-14T16:40:28.651Z,71.79
2018-03-14T16:42:57.004Z,72.15
2018-03-14T16:45:25.319Z,72.54
2018-03-14T16:47:53.648Z,72.71
2018-03-14T16:50:21.966Z,72.95
2018-03-14T16:52:50.358Z,72.89
2018-03-14T16:55:18.665Z,72.04
2018-03-14T16:57:47.149Z,72.79
2018-03-14T17:00:15.474Z,73.02
2018-03-14T17:02:43.803Z,72.80
2018-03-14T17:05:12.150Z,73.46
2018-03-14T17:07:40.490Z,74.12
2018-03-14T17:10:08.834Z,74.31
2018-03-14T17:12:37.151Z,74.05
2018-03-14T17:15:05.474Z,73.64
2018-03-14T17:17:33.786Z,73.96
2018-03-14T17:20:02.118Z,73.36
2018-03-14T17:22:30.518Z,73.29
2018-03-14T17:24:58.846Z,74.14
2018-03-14T17:27:27.283Z,75.02
2018-03-14T17:29:55.631Z,74.25
2018-03-14T17:32:23.955Z,74.93
2018-03-14T17:34:52.276Z,75.00
2018-03-14T17:37:20.599Z,75.04
2018-03-14T17:39:48.923Z,75.10
2018-03-14T17:42:17.317Z,75.68
2018-03-14T17:44:45.666Z,75.62
2018-03-14T17:47:13.986Z,75.73
2018-03-14T17:49:42.333Z,75.61
2018-03-14T17:52:10.667Z,75.69
2018-03-14T17:54:38.995Z,75.24
2018-03-14T17:57:07.342Z,75.69
2018-03-14T17:59:35.680Z,75.67
2018-03-14T18:02:04.029Z,75.53
2018-03-14T18:04:32.332Z,76.24
2018-03-14T18:07:00.657Z,76.28
2018-03-14T18:09:28.995Z,75.91
2018-03-14T18:11:57.316Z,76.22
2018-03-14T18:14:25.717Z,76.02
2018-03-14T18:16:54.047Z,76.52
2018-03-14T18:19:22.362Z,76.15
2018-03-14T18:21:50.700Z,76.32
2018-03-14T18:24:19.093Z,77.12
2018-03-14T18:26:47.763Z,76.89
2018-03-14T18:29:16.113Z,77.07
2018-03-14T18:31:44.494Z,77.78
2018-03-14T18:34:12.858Z,77.36
2018-03-14T18:36:41.327Z,77.58
2018-03-14T18:39:10.246Z,77.78
2018-03-14T18:41:38.578Z,77.82
2018-03-14T18:44:06.950Z,77.57
2018-03-14T18:46:35.294Z,77.29
2018-03-14T18:49:03.676Z,77.45
2018-03-14T18:51:32.043Z,77.06
2018-03-14T18:54:00.371Z,76.93
2018-03-14T18:56:28.705Z,78.08
2018-03-14T18:58:57.037Z,78.54
2018-03-14T19:01:25.411Z,78.51
2018-03-14T19:03:53.751Z,78.43
2018-03-14T19:06:22.088Z,78.34
2018-03-14T19:08:50.478Z,81.40
2018-03-14T19:11:18.811Z,79.07
2018-03-14T19:13:47.131Z,75.92
2018-03-14T19:16:16.399Z,76.53
2018-03-14T19:18:44.706Z,77.12
2018-03-14T19:21:13.157Z,77.75
2018-03-14T19:23:41.661Z,78.31
2018-03-14T19:26:09.975Z,78.44
2018-03-14T19:28:38.598Z,78.75
2018-03-14T19:31:06.979Z,78.68
2018-03-14T19:33:35.332Z,78.25
2018-03-14T19:36:03.649Z,77.93
2018-03-14T19:38:32.026Z,78.14
2018-03-14T19:41:00.464Z,78.06
2018-03-14T19:43:28.852Z,78.08
2018-03-14T19:45:57.198Z,78.11
2018-03-14T19:48:25.651Z,77.63
2018-03-14T19:50:54.017Z,77.86
2018-03-14T19:53:22.462Z,78.03
2018-03-14T19:55:50.783Z,77.96
2018-03-14T19:58:19.196Z,77.74
2018-03-14T20:00:47.617Z,77.55
2018-03-14T20:03:15.982Z,77.40
2018-03-14T20:05:44.374Z,77.59
2018-03-14T20:08:12.702Z,77.50
2018-03-14T20:10:41.071Z,76.84
2018-03-14T20:13:09.450Z,77.10
2018-03-14T20:15:37.818Z,77.33
2018-03-14T20:18:06.480Z,77.34
2018-03-14T20:20:34.830Z,77.19
2018-03-14T20:23:03.313Z,77.70
2018-03-14T20:25:31.631Z,77.56
2018-03-14T20:27:59.968Z,77.66
2018-03-14T20:30:28.304Z,78.04
2018-03-14T20:32:56.690Z,78.22
2018-03-14T20:35:25.060Z,78.27
2018-03-14T20:37:53.325Z,77.92
2018-03-14T20:40:21.655Z,77.46
2018-03-14T20:42:50.007Z,77.37
2018-03-14T20:45:18.442Z,77.46
2018-03-14T20:47:46.754Z,78.55
2018-03-14T20:50:15.543Z,78.42
2018-03-14T20:52:43.866Z,78.64
2018-03-14T20:55:12.280Z,79.02
2018-03-14T20:57:40.587Z,78.75
2018-03-14T21:00:08.964Z,78.25
2018-03-14T21:02:37.357Z,77.63
2018-03-14T21:05:05.665Z,77.01
2018-03-14T21:07:34.007Z,76.76
2018-03-14T21:10:02.379Z,77.56
2018-03-14T21:12:30.761Z,76.98
2018-03-14T21:14:59.183Z,76.99
2018-03-14T21:17:27.525Z,76.09
2018-03-14T21:19:55.939Z,76.06
2018-03-14T21:22:24.278Z,76.78
2018-03-14T21:24:52.582Z,76.61
2018-03-14T21:27:21.019Z,76.22
2018-03-14T21:29:49.348Z,76.12
2018-03-14T21:32:17.671Z,75.74
2018-03-14T21:34:46.080Z,76.94
2018-03-14T21:37:14.473Z,77.73
2018-03-14T21:39:42.880Z,77.83
2018-03-14T21:42:11.196Z,78.63
2018-03-14T21:44:39.524Z,77.36
2018-03-14T21:47:07.880Z,77.23
2018-03-14T21:49:36.200Z,77.24
2018-03-14T21:52:04.523Z,76.75
2018-03-14T21:54:32.926Z,77.20
2018-03-14T21:57:13.121Z,77.29
2018-03-14T21:59:41.478Z,76.74
2018-03-14T22:02:09.792Z,76.92
2018-03-14T22:04:38.123Z,76.76
2018-03-14T22:07:06.453Z,77.18
2018-03-14T22:09:34.822Z,77.01
2018-03-14T22:12:03.152Z,77.53
2018-03-14T22:14:31.601Z,77.83
2018-03-14T22:16:59.833Z,77.52
2018-03-14T22:19:28.407Z,76.33
2018-03-14T22:21:56.716Z,76.22
2018-03-14T22:24:25.057Z,76.96
2018-03-14T22:26:53.357Z,77.10
2018-03-14T22:29:21.690Z,77.03
2018-03-14T22:31:50.017Z,76.19
2018-03-14T22:34:18.343Z,78.38
2018-03-14T22:36:46.668Z,78.47
2018-03-14T22:39:15.019Z,78.07
2018-03-14T22:41:43.448Z,77.23
2018-03-14T22:44:11.821Z,76.86
2018-03-14T22:46:40.155Z,77.75
2018-03-14T22:49:08.526Z,78.77
2018-03-14T22:51:36.929Z,79.90
2018-03-14T22:54:05.255Z,80.61
2018-03-14T22:56:33.578Z,80.21
2018-03-14T22:59:01.907Z,80.51
2018-03-14T23:01:30.220Z,81.19
2018-03-14T23:03:58.542Z,80.88
2018-03-14T23:06:26.870Z,79.71
2018-03-14T23:08:55.179Z,80.29
2018-03-14T23:11:23.494Z,79.94
2018-03-14T23:13:51.912Z,79.20
2018-03-14T23:16:20.251Z,79.17
2018-03-14T23:18:48.594Z,80.09
2018-03-14T23:21:16.927Z,79.98
2018-03-14T23:23:45.236Z,80.91
2018-03-14T23:26:13.577Z,80.85
2018-03-14T23:28:41.902Z,80.76
2018-03-14T23:31:10.391Z,79.73
2018-03-14T23:33:39.135Z,79.56
2018-03-14T23:36:07.586Z,80.29
2018-03-14T23:38:35.901Z,78.97
2018-03-14T23:41:04.237Z,78.90
2018-03-14T23:43:32.569Z,79.18
2018-03-14T23:46:00.876Z,79.10
2018-03-14T23:48:29.192Z,79.31
2018-03-14T23:50:57.509Z,78.83
2018-03-14T23:53:25.888Z,78.19
2018-03-14T23:55:54.221Z,78.22
2018-03-14T23:58:22.566Z,79.68
